地図

経路データ

SID SEASON NUMBER BASIN SUBBASIN NAME ISO_TIME NATURE LAT LON WMO_WIND WMO_PRES WMO_AGENCY TRACK_TYPE DIST2LAND LANDFALL IFLAG USA_AGENCY USA_ATCF_ID USA_LAT USA_LON USA_RECORD USA_STATUS USA_WIND USA_PRES USA_SSHS USA_R34_NE USA_R34_SE USA_R34_SW USA_R34_NW USA_R50_NE USA_R50_SE USA_R50_SW USA_R50_NW USA_R64_NE USA_R64_SE USA_R64_SW USA_R64_NW USA_POCI USA_ROCI USA_RMW USA_EYE TOKYO_LAT TOKYO_LON TOKYO_GRADE TOKYO_WIND TOKYO_PRES TOKYO_R50_DIR TOKYO_R50_LONG TOKYO_R50_SHORT TOKYO_R30_DIR TOKYO_R30_LONG TOKYO_R30_SHORT TOKYO_LAND CMA_LAT CMA_LON CMA_CAT CMA_WIND CMA_PRES HKO_LAT HKO_LON HKO_CAT HKO_WIND HKO_PRES NEWDELHI_LAT NEWDELHI_LON NEWDELHI_GRADE NEWDELHI_WIND NEWDELHI_PRES NEWDELHI_CI NEWDELHI_DP NEWDELHI_POCI REUNION_LAT REUNION_LON REUNION_TYPE REUNION_WIND REUNION_PRES REUNION_TNUM REUNION_CI REUNION_RMW REUNION_R34_NE REUNION_R34_SE REUNION_R34_SW REUNION_R34_NW REUNION_R50_NE REUNION_R50_SE REUNION_R50_SW REUNION_R50_NW REUNION_R64_NE REUNION_R64_SE REUNION_R64_SW REUNION_R64_NW BOM_LAT BOM_LON BOM_TYPE BOM_WIND BOM_PRES BOM_TNUM BOM_CI BOM_RMW BOM_R34_NE BOM_R34_SE BOM_R34_SW BOM_R34_NW BOM_R50_NE BOM_R50_SE BOM_R50_SW BOM_R50_NW BOM_R64_NE BOM_R64_SE BOM_R64_SW BOM_R64_NW BOM_ROCI BOM_POCI BOM_EYE BOM_POS_METHOD BOM_PRES_METHOD NADI_LAT NADI_LON NADI_CAT NADI_WIND NADI_PRES WELLINGTON_LAT WELLINGTON_LON WELLINGTON_WIND WELLINGTON_PRES DS824_LAT DS824_LON DS824_STAGE DS824_WIND DS824_PRES TD9636_LAT TD9636_LON TD9636_STAGE TD9636_WIND TD9636_PRES TD9635_LAT TD9635_LON TD9635_WIND TD9635_PRES TD9635_ROCI NEUMANN_LAT NEUMANN_LON NEUMANN_CLASS NEUMANN_WIND NEUMANN_PRES MLC_LAT MLC_LON MLC_CLASS MLC_WIND MLC_PRES USA_GUST BOM_GUST BOM_GUST_PER REUNION_GUST REUNION_GUST_PER USA_SEAHGT USA_SEARAD_NE USA_SEARAD_SE USA_SEARAD_SW USA_SEARAD_NW STORM_SPEED STORM_DIR
1959303S07066 1960 100 SI MM NOT_NAMED 1959-10-29 18:00:00 TS -7.20000 66.2000 main 1710 1704 O________OO___ jtwc_sh SH011960 -7.20000 66.2000 -1 -7.20000 66.2000 TC -7.20000 66.2000 7 3 275
1959303S07066 1960 100 SI MM NOT_NAMED 1959-10-29 21:00:00 TS -7.18807 66.0646 main 1704 1693 P________PP___ SH011960 -7.17750 66.0900 -1 -7.17750 66.0900 TC -7.20920 66.0136 7 3 267
1959303S07066 1960 100 SI MM NOT_NAMED 1959-10-30 00:00:00 TS -7.21491 65.8640 main 1693 1667 O________OP___ jtwc_sh SH011960 -7.20000 65.9000 -1 -7.20000 65.9000 TC -7.24473 65.7919 7 5 256
1959303S07066 1960 100 SI MM NOT_NAMED 1959-10-30 03:00:00 TS -7.31427 65.5447 main 1661 1609 P________PP___ SH011960 -7.30495 65.5674 -1 -7.30495 65.5674 TC -7.33292 65.4992 7 11 253
1959303S07066 1960 100 SI MM NOT_NAMED 1959-10-30 06:00:00 TS -7.52308 64.8538 reunion main 1609 1544 O____O___OO___ jtwc_sh SH011960 -7.50000 65.1000 -1 -7.80000 61.9000 99 9.90000 -7.50000 65.1000 TC 25 -7.50000 65.1000 7 15 251
1959303S07066 1960 100 SI MM NOT_NAMED 1959-10-30 09:00:00 TS -7.79335 64.1283 main 1539 1476 P____P___PP___ SH011960 -7.77746 64.5450 -1 -7.92387 61.5774 99 -7.77746 64.5450 TC 25 -7.75987 64.5704 7 16 249
1959303S07066 1960 100 SI MM NOT_NAMED 1959-10-30 12:00:00 TS -8.08407 63.3797 main 1476 1426 O____P___OP___ jtwc_sh SH011960 -8.10000 63.9000 -1 -8.05007 61.2509 99 -8.10000 63.9000 TC 25 -8.07772 63.9356 7 16 249
1959303S07066 1960 100 SI MM NOT_NAMED 1959-10-30 15:00:00 TS -8.35441 62.6487 main 1411 1371 P____P___PP___ SH011960 -8.41491 63.2225 -1 -8.18119 60.9168 99 -8.41491 63.2225 TC 25 -8.40665 63.2329 7 14 249
1959303S07066 1960 100 SI MM NOT_NAMED 1959-10-30 18:00:00 TS -8.60495 62.0178 main 1367 1326 O____P___OO___ jtwc_sh SH011960 -8.70000 62.5000 -1 -8.31979 60.5714 99 -8.70000 62.5000 TC 25 -8.70000 62.5000 1 13 250
1959303S07066 1960 100 SI MM NOT_NAMED 1959-10-30 21:00:00 TS -8.81047 61.3697 main 1326 1261 P____P___PP___ SH011960 -8.92994 61.7500 -1 -8.46843 60.2108 99 -8.92994 61.7500 TC 25 -8.91356 61.7681 1 13 254
1959303S07066 1960 100 SI MM NOT_NAMED 1959-10-31 00:00:00 TS -8.97810 60.7128 main 1261 1196 O____P___OP___ jtwc_sh SH011960 -9.10000 61.0000 -1 -8.62966 59.8313 99 -9.10000 61.0000 TC 25 -9.08274 61.0200 1 13 257
1959303S07066 1960 100 SI MM NOT_NAMED 1959-10-31 03:00:00 TS -9.11909 60.0640 main 1196 1131 P____P___PP___ SH011960 -9.22994 60.2700 -1 -8.80601 59.4290 99 -9.22994 60.2700 TC 25 -9.21048 60.2869 1 13 259
1959303S07066 1960 100 SI MM NOT_NAMED 1959-10-31 06:00:00 TS -9.22500 59.4500 reunion main 1131 1066 O____O___OO___ jtwc_sh SH011960 -9.30000 59.6000 -1 -9.00000 59.0000 99 9.90000 -9.30000 59.6000 TC 25 -9.30000 59.6000 1 12 261
1959303S07066 1960 100 SI MM NOT_NAMED 1959-10-31 09:00:00 TS -9.29594 58.8991 main 1066 1011 P____P___PP___ SH011960 -9.30730 59.0274 -1 -9.21298 58.5423 99 -9.30730 59.0274 TC 25 -9.35618 58.9993 1 11 263
1959303S07066 1960 100 SI MM NOT_NAMED 1959-10-31 12:00:00 TS -9.35520 58.3771 main 1011 961 O____P___OP___ jtwc_sh SH011960 -9.30000 58.5000 -1 -9.44168 58.0613 99 -9.30000 58.5000 TC 25 -9.37912 58.4471 1 11 262
1959303S07066 1960 100 SI MM NOT_NAMED 1959-10-31 15:00:00 TS -9.43852 57.8464 main 951 897 P____P___PP___ SH011960 -9.34242 57.9500 -1 -9.68170 57.5643 99 -9.34242 57.9500 TC 25 -9.38753 57.9213 1 11 260
1959303S07066 1960 100 SI MM NOT_NAMED 1959-10-31 18:00:00 TS -9.53217 57.3147 main 897 843 O____P___OO___ jtwc_sh SH011960 -9.40000 57.4000 -1 -9.92867 57.0587 99 -9.40000 57.4000 TC 25 -9.40000 57.4000 1 11 260
1959303S07066 1960 100 SI MM NOT_NAMED 1959-10-31 21:00:00 TS -9.62813 56.7755 main 843 789 P____P___PP___ SH011960 -9.44991 56.8500 -1 -10.1783 56.5520 99 -9.44991 56.8500 TC 25 -9.43443 56.8499 1 11 260
1959303S07066 1960 100 SI MM NOT_NAMED 1959-11-01 00:00:00 TS -9.72583 56.2379 main 780 727 O____P___OP___ jtwc_sh SH011960 -9.50000 56.3000 -1 -10.4262 56.0516 99 -9.50000 56.3000 TC 25 -9.47716 56.2999 1 11 260
1959303S07066 1960 100 SI MM NOT_NAMED 1959-11-01 03:00:00 TS -9.82107 55.7037 main 727 674 P____P___PP___ SH011960 -9.54241 55.7499 -1 -10.6681 55.5651 99 -9.54241 55.7499 TC 25 -9.53131 55.7499 1 11 259
1959303S07066 1960 100 SI MM NOT_NAMED 1959-11-01 06:00:00 TS -9.92500 55.1750 reunion main 674 621 O____O___OO___ jtwc_sh SH011960 -9.60000 55.2000 -1 -10.9000 55.1000 99 9.90000 -9.60000 55.2000 TC 25 -9.60000 55.2000 1 11 258
1959303S07066 1960 100 SI MM NOT_NAMED 1959-11-01 09:00:00 TS -10.0419 54.6560 main 621 563 P____P___PP___ SH011960 -9.69241 54.6500 -1 -11.1013 54.6862 99 -9.69241 54.6500 TC 25 -9.68143 54.6378 1 10 257
1959303S07066 1960 100 SI MM NOT_NAMED 1959-11-01 12:00:00 TS -10.1678 54.1424 main 554 512 O____P___OP___ jtwc_sh SH011960 -9.80000 54.1000 -1 -11.2940 54.2920 99 -9.80000 54.1000 TC 25 -9.77736 54.0775 1 10 256
1959303S07066 1960 100 SI MM NOT_NAMED 1959-11-01 15:00:00 TS -10.2912 53.6316 main 503 461 P____P___PP___ SH011960 -9.89995 53.5425 -1 -11.4803 53.9132 99 -9.89995 53.5425 TC 25 -9.88459 53.5284 1 10 256
1959303S07066 1960 100 SI MM NOT_NAMED 1959-11-01 18:00:00 TS -10.4157 53.1364 main 451 407 O____P___OO___ jtwc_sh SH011960 -10.0000 53.0000 -1 -11.6628 53.5455 99 -10.0000 53.0000 TC 25 -10.0000 53.0000 1 10 256
1959303S07066 1960 100 SI MM NOT_NAMED 1959-11-01 21:00:00 TS -10.5344 52.6715 main 407 358 P____P___PP___ SH011960 -10.0924 52.4849 -1 -11.8437 53.1847 99 -10.0924 52.4849 TC 25 -10.1090 52.5316 1 9 255
1959303S07066 1960 100 SI MM NOT_NAMED 1959-11-02 00:00:00 TS -10.6630 52.2265 main 348 305 O____P___OP___ jtwc_sh SH011960 -10.2000 52.0000 -1 -12.0253 52.8264 99 -10.2000 52.0000 TC 25 -10.2265 52.0795 1 9 252
1959303S07066 1960 100 SI MM NOT_NAMED 1959-11-02 03:00:00 TS -10.8126 51.8060 main 305 256 P____P___PP___ SH011960 -10.3423 51.5724 -1 -12.2100 52.4662 99 -10.3423 51.5724 TC 25 -10.3558 51.6127 1 9 250
1959303S07066 1960 100 SI MM NOT_NAMED 1959-11-02 06:00:00 TS -10.9750 51.3500 reunion main 256 196 O____O___OO___ jtwc_sh SH011960 -10.5000 51.1000 -1 -12.4000 52.1000 99 9.90000 -10.5000 51.1000 TC 25 -10.5000 51.1000 1 11 253
1959303S07066 1960 100 SI MM NOT_NAMED 1959-11-02 09:00:00 TS -11.1296 50.7579 main 196 132 P____P___PP___ SH011960 -10.6425 50.4799 -1 -12.5964 51.6243 99 -10.6425 50.4799 TC 25 -10.6370 50.4475 1 12 255
1959303S07066 1960 100 SI MM NOT_NAMED 1959-11-02 12:00:00 TS -11.2968 50.1222 main 125 70 O____P___OP___ jtwc_sh SH011960 -10.8000 49.8000 -1 -12.7961 51.1337 99 -10.8000 49.8000 TC 25 -10.7911 49.7550 1 13 254
1959303S07066 1960 100 SI MM NOT_NAMED 1959-11-02 15:00:00 TS -11.4823 49.5003 main 70 49 P____P___PP___ SH011960 -10.9775 49.1349 -1 -12.9996 50.6466 99 -10.9775 49.1349 TC 25 -10.9745 49.0850 1 12 251
1959303S07066 1960 100 SI MM NOT_NAMED 1959-11-02 18:00:00 TS -11.7019 48.9202 main 55 54 O____P___OO___ jtwc_sh SH011960 -11.2000 48.5000 -1 -13.2074 50.1809 99 -11.2000 48.5000 TC 25 -11.2000 48.5000 1 12 247
1959303S07066 1960 100 SI MM NOT_NAMED 1959-11-02 21:00:00 TS -11.9581 48.3618 main 70 70 P____P___PP___ SH011960 -11.4776 47.8677 -1 -13.4205 49.7551 99 -11.4776 47.8677 TC 25 -11.4569 47.9567 1 11 241
1959303S07066 1960 100 SI MM NOT_NAMED 1959-11-03 00:00:00 TS -12.2497 47.9273 main 103 100 O____P___OP___ jtwc_sh SH011960 -11.8000 47.4000 -1 -13.6396 49.3874 99 -11.8000 47.4000 TC 25 -11.7592 47.5218 1 9 229
1959303S07066 1960 100 SI MM NOT_NAMED 1959-11-03 03:00:00 TS -12.5568 47.6656 main 116 89 P____P___PP___ SH011960 -12.1272 47.1576 -1 -13.8658 49.0962 99 -12.1272 47.1576 TC 30 -12.1068 47.2509 1 7 204
1959303S07066 1960 100 SI MM NOT_NAMED 1959-11-03 06:00:00 TS -12.9000 47.6250 reunion main 89 39 O____O___OO___ jtwc_sh SH011960 -12.5000 47.2000 -1 -14.1000 48.9000 99 9.90000 -12.5000 47.2000 TC 35 -12.5000 47.2000 2 8 169
1959303S07066 1960 100 SI MM NOT_NAMED 1959-11-03 09:00:00 TS -13.2896 47.8103 main 39 0 P____P___PP___ SH011960 -12.9276 47.5099 -1 -14.3429 48.8119 99 -12.9276 47.5099 TC 35 -12.9604 47.4095 2 10 147
1959303S07066 1960 100 SI MM NOT_NAMED 1959-11-03 12:00:00 TS -13.7129 48.1647 main 10 0 O____P___OP___ jtwc_sh SH011960 -13.4000 48.0000 -1 -14.5938 48.8233 99 -13.4000 48.0000 TC 35 -13.4578 47.8355 2 11 140
1959303S07066 1960 100 SI MM NOT_NAMED 1959-11-03 15:00:00 TS -14.1582 48.5674 main 0 0 P____P___PP___ SH011960 -13.9149 48.4775 -1 -14.8516 48.9204 99 -13.9149 48.4775 TC 35 -13.9512 48.3940 2 12 136
1959303S07066 1960 100 SI MM NOT_NAMED 1959-11-03 18:00:00 TS -14.5788 49.0223 main 0 0 O____P___OO___ jtwc_sh SH011960 -14.4000 49.0000 -1 -15.1151 49.0893 99 -14.4000 49.0000 TC 35 -14.4000 49.0000 2 12 131
1959303S07066 1960 100 SI MM NOT_NAMED 1959-11-03 21:00:00 TS -14.9330 49.4961 main 0 0 P____P___PP___ SH011960 -14.7874 49.5427 -1 -15.3829 49.3158 99 -14.7874 49.5427 TC 30 -14.7744 49.5834 2 11 125
1959303S07066 1960 100 SI MM NOT_NAMED 1959-11-04 00:00:00 TS -15.2348 49.9809 main 0 0 O____P___OP___ jtwc_sh SH011960 -15.1000 50.1000 -1 -15.6539 49.5858 99 -15.1000 50.1000 TC 25 -15.0853 50.1379 2 11 121
1959303S07066 1960 100 SI MM NOT_NAMED 1959-11-04 03:00:00 TS -15.5014 50.4658 main 10 10 P____P___PP___ SH011960 -15.3627 50.6523 -1 -15.9266 49.8853 99 -15.3627 50.6523 TC 25 -15.3536 50.6735 2 11 119
1959303S07066 1960 100 SI MM NOT_NAMED 1959-11-04 06:00:00 TS -15.7500 50.9500 reunion main 63 O____O___OO___ jtwc_sh SH011960 -15.6000 51.2000 -1 -16.2000 50.2000 99 9.90000 -15.6000 51.2000 TC 25 -15.6000 51.2000 7 11 118

IBTrACS Databaseについて

本データベースは、米国NOAAが公開する1842年以降の世界の熱帯低気圧のベストトラックデータアーカイブInternational Best Track Archive for Climate Stewardship (IBTrACS)を、ウェブで閲覧しやすい形式に変換したものです。

最終更新日:2021-12-03